sensor_id;sensor_type;location;lat;lon;timestamp;P1;durP1;ratioP1;P2;durP2;ratioP2
79790;SDS011;69278;52.220;5.172;2023-08-20T00:00:30;6.45;;;2.40;;
79790;SDS011;69278;52.220;5.172;2023-08-20T00:03:03;6.13;;;2.10;;
79790;SDS011;69278;52.220;5.172;2023-08-20T00:05:37;7.43;;;2.10;;
79790;SDS011;69278;52.220;5.172;2023-08-20T00:08:05;5.80;;;2.25;;
79790;SDS011;69278;52.220;5.172;2023-08-20T00:10:31;7.97;;;2.17;;
79790;SDS011;69278;52.220;5.172;2023-08-20T00:12:58;6.72;;;2.20;;
79790;SDS011;69278;52.220;5.172;2023-08-20T00:15:25;8.45;;;2.25;;
79790;SDS011;69278;52.220;5.172;2023-08-20T00:17:55;6.45;;;2.20;;
79790;SDS011;69278;52.220;5.172;2023-08-20T00:20:22;7.40;;;2.10;;
79790;SDS011;69278;52.220;5.172;2023-08-20T00:22:49;9.27;;;2.43;;
79790;SDS011;69278;52.220;5.172;2023-08-20T00:25:16;6.13;;;2.22;;
79790;SDS011;69278;52.220;5.172;2023-08-20T00:27:43;7.30;;;2.38;;
79790;SDS011;69278;52.220;5.172;2023-08-20T00:30:10;8.15;;;2.10;;
79790;SDS011;69278;52.220;5.172;2023-08-20T00:32:37;6.03;;;2.03;;
79790;SDS011;69278;52.220;5.172;2023-08-20T00:35:04;5.27;;;1.80;;
79790;SDS011;69278;52.220;5.172;2023-08-20T00:37:31;7.75;;;2.10;;
79790;SDS011;69278;52.220;5.172;2023-08-20T00:39:58;7.00;;;2.10;;
79790;SDS011;69278;52.220;5.172;2023-08-20T00:42:25;6.95;;;2.10;;
79790;SDS011;69278;52.220;5.172;2023-08-20T00:44:52;8.30;;;2.30;;
79790;SDS011;69278;52.220;5.172;2023-08-20T00:47:19;4.87;;;2.00;;
79790;SDS011;69278;52.220;5.172;2023-08-20T00:49:47;8.30;;;2.30;;
79790;SDS011;69278;52.220;5.172;2023-08-20T00:52:15;7.97;;;2.40;;
79790;SDS011;69278;52.220;5.172;2023-08-20T00:54:44;6.15;;;2.10;;
79790;SDS011;69278;52.220;5.172;2023-08-20T00:57:16;4.55;;;2.08;;
79790;SDS011;69278;52.220;5.172;2023-08-20T00:59:44;6.07;;;2.00;;
79790;SDS011;69278;52.220;5.172;2023-08-20T01:02:15;7.97;;;2.30;;
79790;SDS011;69278;52.220;5.172;2023-08-20T01:04:43;8.48;;;2.15;;
79790;SDS011;69278;52.220;5.172;2023-08-20T01:12:51;5.67;;;2.00;;
79790;SDS011;69278;52.220;5.172;2023-08-20T01:15:18;7.60;;;2.17;;
79790;SDS011;69278;52.220;5.172;2023-08-20T01:17:44;8.48;;;2.00;;
79790;SDS011;69278;52.220;5.172;2023-08-20T01:20:12;8.73;;;2.40;;
79790;SDS011;69278;52.220;5.172;2023-08-20T01:30:58;6.93;;;2.30;;
79790;SDS011;69278;52.220;5.172;2023-08-20T01:33:26;5.45;;;2.15;;
79790;SDS011;69278;52.220;5.172;2023-08-20T01:35:53;7.13;;;2.25;;
79790;SDS011;69278;52.220;5.172;2023-08-20T01:38:21;4.53;;;2.00;;
79790;SDS011;69278;52.220;5.172;2023-08-20T01:40:48;6.93;;;2.00;;
79790;SDS011;69278;52.220;5.172;2023-08-20T01:43:15;5.85;;;2.10;;
79790;SDS011;69278;52.220;5.172;2023-08-20T01:45:42;7.57;;;2.25;;
79790;SDS011;69278;52.220;5.172;2023-08-20T01:48:08;5.38;;;2.08;;
79790;SDS011;69278;52.220;5.172;2023-08-20T01:50:35;7.10;;;2.17;;
79790;SDS011;69278;52.220;5.172;2023-08-20T01:53:02;7.75;;;2.10;;
79790;SDS011;69278;52.220;5.172;2023-08-20T01:55:29;7.53;;;2.38;;
79790;SDS011;69278;52.220;5.172;2023-08-20T01:57:58;6.82;;;2.08;;
79790;SDS011;69278;52.220;5.172;2023-08-20T02:00:24;7.78;;;2.20;;
79790;SDS011;69278;52.220;5.172;2023-08-20T02:02:51;7.27;;;2.10;;
79790;SDS011;69278;52.220;5.172;2023-08-20T02:05:19;6.20;;;2.20;;
79790;SDS011;69278;52.220;5.172;2023-08-20T02:07:46;7.20;;;2.30;;
79790;SDS011;69278;52.220;5.172;2023-08-20T02:10:12;7.18;;;2.30;;
79790;SDS011;69278;52.220;5.172;2023-08-20T02:12:39;4.85;;;2.15;;
79790;SDS011;69278;52.220;5.172;2023-08-20T02:15:06;7.80;;;2.10;;
79790;SDS011;69278;52.220;5.172;2023-08-20T02:17:33;8.88;;;2.40;;
79790;SDS011;69278;52.220;5.172;2023-08-20T02:20:02;6.97;;;2.33;;
79790;SDS011;69278;52.220;5.172;2023-08-20T02:22:30;8.85;;;2.22;;
79790;SDS011;69278;52.220;5.172;2023-08-20T02:24:57;8.43;;;2.30;;
79790;SDS011;69278;52.220;5.172;2023-08-20T02:27:23;5.83;;;2.30;;
79790;SDS011;69278;52.220;5.172;2023-08-20T02:29:50;4.95;;;2.05;;
79790;SDS011;69278;52.220;5.172;2023-08-20T02:32:17;8.45;;;2.20;;
79790;SDS011;69278;52.220;5.172;2023-08-20T02:34:44;4.93;;;2.00;;
79790;SDS011;69278;52.220;5.172;2023-08-20T02:37:15;5.88;;;2.13;;
79790;SDS011;69278;52.220;5.172;2023-08-20T02:39:41;7.67;;;2.13;;
79790;SDS011;69278;52.220;5.172;2023-08-20T02:42:08;6.25;;;2.20;;
79790;SDS011;69278;52.220;5.172;2023-08-20T02:44:34;6.82;;;2.00;;
79790;SDS011;69278;52.220;5.172;2023-08-20T02:47:01;5.40;;;2.05;;
79790;SDS011;69278;52.220;5.172;2023-08-20T02:49:27;6.10;;;2.38;;
79790;SDS011;69278;52.220;5.172;2023-08-20T02:51:54;5.10;;;2.00;;
79790;SDS011;69278;52.220;5.172;2023-08-20T02:54:20;5.78;;;2.00;;
79790;SDS011;69278;52.220;5.172;2023-08-20T02:56:47;7.18;;;2.13;;
79790;SDS011;69278;52.220;5.172;2023-08-20T02:59:14;4.75;;;2.20;;
79790;SDS011;69278;52.220;5.172;2023-08-20T03:01:40;6.43;;;2.28;;
79790;SDS011;69278;52.220;5.172;2023-08-20T03:04:07;6.27;;;2.20;;
79790;SDS011;69278;52.220;5.172;2023-08-20T03:06:33;5.68;;;2.08;;
79790;SDS011;69278;52.220;5.172;2023-08-20T03:09:00;5.95;;;2.10;;
79790;SDS011;69278;52.220;5.172;2023-08-20T03:11:26;5.30;;;2.00;;
79790;SDS011;69278;52.220;5.172;2023-08-20T03:13:53;5.28;;;2.17;;
79790;SDS011;69278;52.220;5.172;2023-08-20T03:16:19;5.60;;;2.03;;
79790;SDS011;69278;52.220;5.172;2023-08-20T03:18:46;8.07;;;2.10;;
79790;SDS011;69278;52.220;5.172;2023-08-20T03:21:12;8.45;;;2.22;;
79790;SDS011;69278;52.220;5.172;2023-08-20T03:23:39;6.93;;;2.00;;
79790;SDS011;69278;52.220;5.172;2023-08-20T03:26:05;5.35;;;2.10;;
79790;SDS011;69278;52.220;5.172;2023-08-20T03:28:32;6.73;;;2.30;;
79790;SDS011;69278;52.220;5.172;2023-08-20T03:31:01;6.32;;;2.10;;
79790;SDS011;69278;52.220;5.172;2023-08-20T03:33:28;7.20;;;2.45;;
79790;SDS011;69278;52.220;5.172;2023-08-20T03:35:54;4.72;;;2.10;;
79790;SDS011;69278;52.220;5.172;2023-08-20T03:38:25;6.97;;;2.30;;
79790;SDS011;69278;52.220;5.172;2023-08-20T03:40:51;6.67;;;2.37;;
79790;SDS011;69278;52.220;5.172;2023-08-20T03:43:18;4.28;;;2.20;;
79790;SDS011;69278;52.220;5.172;2023-08-20T03:45:44;7.05;;;2.47;;
79790;SDS011;69278;52.220;5.172;2023-08-20T03:48:11;8.07;;;2.38;;
79790;SDS011;69278;52.220;5.172;2023-08-20T03:50:37;6.38;;;2.28;;
79790;SDS011;69278;52.220;5.172;2023-08-20T03:53:04;6.57;;;2.23;;
79790;SDS011;69278;52.220;5.172;2023-08-20T03:55:30;7.88;;;2.40;;
79790;SDS011;69278;52.220;5.172;2023-08-20T03:57:57;8.02;;;2.22;;
79790;SDS011;69278;52.220;5.172;2023-08-20T04:00:23;5.45;;;2.30;;
79790;SDS011;69278;52.220;5.172;2023-08-20T04:02:52;9.18;;;2.47;;
79790;SDS011;69278;52.220;5.172;2023-08-20T04:05:19;6.33;;;2.20;;
79790;SDS011;69278;52.220;5.172;2023-08-20T04:07:45;7.07;;;2.50;;
79790;SDS011;69278;52.220;5.172;2023-08-20T04:10:12;8.15;;;2.10;;
79790;SDS011;69278;52.220;5.172;2023-08-20T04:12:38;8.52;;;2.60;;
79790;SDS011;69278;52.220;5.172;2023-08-20T04:15:05;7.13;;;2.30;;
79790;SDS011;69278;52.220;5.172;2023-08-20T04:17:32;6.43;;;2.40;;
79790;SDS011;69278;52.220;5.172;2023-08-20T04:19:59;8.48;;;2.30;;
79790;SDS011;69278;52.220;5.172;2023-08-20T04:22:25;6.90;;;2.50;;
79790;SDS011;69278;52.220;5.172;2023-08-20T04:24:52;6.15;;;2.40;;
79790;SDS011;69278;52.220;5.172;2023-08-20T04:27:18;7.13;;;2.38;;
79790;SDS011;69278;52.220;5.172;2023-08-20T04:29:45;7.57;;;2.43;;
79790;SDS011;69278;52.220;5.172;2023-08-20T04:32:11;7.43;;;2.70;;
79790;SDS011;69278;52.220;5.172;2023-08-20T04:34:38;6.93;;;2.53;;
79790;SDS011;69278;52.220;5.172;2023-08-20T04:37:04;7.68;;;2.78;;
79790;SDS011;69278;52.220;5.172;2023-08-20T04:39:31;5.78;;;2.42;;
79790;SDS011;69278;52.220;5.172;2023-08-20T04:41:57;6.73;;;2.43;;
79790;SDS011;69278;52.220;5.172;2023-08-20T04:44:26;9.45;;;3.05;;
79790;SDS011;69278;52.220;5.172;2023-08-20T04:46:52;8.25;;;2.80;;
79790;SDS011;69278;52.220;5.172;2023-08-20T04:49:19;8.95;;;2.60;;
79790;SDS011;69278;52.220;5.172;2023-08-20T04:51:45;6.13;;;2.70;;
79790;SDS011;69278;52.220;5.172;2023-08-20T04:54:13;9.17;;;2.43;;
79790;SDS011;69278;52.220;5.172;2023-08-20T04:56:39;6.45;;;2.53;;
79790;SDS011;69278;52.220;5.172;2023-08-20T04:59:05;6.28;;;2.40;;
79790;SDS011;69278;52.220;5.172;2023-08-20T05:01:32;7.80;;;2.60;;
79790;SDS011;69278;52.220;5.172;2023-08-20T05:03:58;7.18;;;2.75;;
79790;SDS011;69278;52.220;5.172;2023-08-20T05:06:25;6.83;;;2.63;;
79790;SDS011;69278;52.220;5.172;2023-08-20T05:08:51;8.90;;;2.55;;
79790;SDS011;69278;52.220;5.172;2023-08-20T05:11:18;6.88;;;2.70;;
79790;SDS011;69278;52.220;5.172;2023-08-20T05:13:45;6.10;;;2.60;;
79790;SDS011;69278;52.220;5.172;2023-08-20T05:16:11;6.97;;;2.90;;
79790;SDS011;69278;52.220;5.172;2023-08-20T05:18:38;7.33;;;2.40;;
79790;SDS011;69278;52.220;5.172;2023-08-20T05:21:04;7.28;;;2.55;;
79790;SDS011;69278;52.220;5.172;2023-08-20T05:23:31;8.23;;;2.65;;
79790;SDS011;69278;52.220;5.172;2023-08-20T05:25:57;6.72;;;2.67;;
79790;SDS011;69278;52.220;5.172;2023-08-20T05:28:24;6.35;;;2.40;;
79790;SDS011;69278;52.220;5.172;2023-08-20T05:30:54;5.23;;;2.37;;
79790;SDS011;69278;52.220;5.172;2023-08-20T05:33:24;6.78;;;2.58;;
79790;SDS011;69278;52.220;5.172;2023-08-20T05:35:50;7.10;;;2.78;;
79790;SDS011;69278;52.220;5.172;2023-08-20T05:38:17;6.88;;;2.85;;
79790;SDS011;69278;52.220;5.172;2023-08-20T05:40:43;6.80;;;2.75;;
79790;SDS011;69278;52.220;5.172;2023-08-20T05:43:10;10.40;;;2.80;;
79790;SDS011;69278;52.220;5.172;2023-08-20T05:45:37;8.07;;;2.35;;
79790;SDS011;69278;52.220;5.172;2023-08-20T05:48:03;7.10;;;2.40;;
79790;SDS011;69278;52.220;5.172;2023-08-20T05:50:30;4.97;;;2.38;;
79790;SDS011;69278;52.220;5.172;2023-08-20T05:52:56;4.85;;;2.50;;
79790;SDS011;69278;52.220;5.172;2023-08-20T05:55:23;7.80;;;2.37;;
79790;SDS011;69278;52.220;5.172;2023-08-20T05:57:50;5.63;;;2.40;;
79790;SDS011;69278;52.220;5.172;2023-08-20T06:00:16;6.28;;;2.20;;
79790;SDS011;69278;52.220;5.172;2023-08-20T06:02:44;6.68;;;2.30;;
79790;SDS011;69278;52.220;5.172;2023-08-20T06:05:10;5.97;;;2.00;;
79790;SDS011;69278;52.220;5.172;2023-08-20T06:07:37;4.67;;;2.00;;
79790;SDS011;69278;52.220;5.172;2023-08-20T06:10:04;8.90;;;2.35;;
79790;SDS011;69278;52.220;5.172;2023-08-20T06:12:31;6.60;;;2.30;;
79790;SDS011;69278;52.220;5.172;2023-08-20T06:14:58;8.88;;;2.10;;
79790;SDS011;69278;52.220;5.172;2023-08-20T06:17:25;6.63;;;2.20;;
79790;SDS011;69278;52.220;5.172;2023-08-20T06:19:51;6.77;;;2.27;;
79790;SDS011;69278;52.220;5.172;2023-08-20T06:22:18;6.40;;;2.35;;
79790;SDS011;69278;52.220;5.172;2023-08-20T06:24:44;11.45;;;3.00;;
79790;SDS011;69278;52.220;5.172;2023-08-20T06:27:11;8.35;;;2.30;;
79790;SDS011;69278;52.220;5.172;2023-08-20T06:29:37;7.40;;;2.42;;
79790;SDS011;69278;52.220;5.172;2023-08-20T06:32:05;6.93;;;2.50;;
79790;SDS011;69278;52.220;5.172;2023-08-20T06:34:33;7.10;;;2.00;;
79790;SDS011;69278;52.220;5.172;2023-08-20T06:37:00;9.10;;;2.47;;
79790;SDS011;69278;52.220;5.172;2023-08-20T06:39:26;8.10;;;2.50;;
79790;SDS011;69278;52.220;5.172;2023-08-20T06:41:53;8.25;;;2.30;;
79790;SDS011;69278;52.220;5.172;2023-08-20T06:44:19;11.93;;;2.40;;
79790;SDS011;69278;52.220;5.172;2023-08-20T06:46:46;7.80;;;2.50;;
79790;SDS011;69278;52.220;5.172;2023-08-20T06:49:12;7.07;;;2.38;;
79790;SDS011;69278;52.220;5.172;2023-08-20T06:51:39;10.25;;;2.38;;
79790;SDS011;69278;52.220;5.172;2023-08-20T06:54:05;10.18;;;3.00;;
79790;SDS011;69278;52.220;5.172;2023-08-20T06:56:34;9.80;;;2.60;;
79790;SDS011;69278;52.220;5.172;2023-08-20T06:59:01;8.50;;;2.20;;
79790;SDS011;69278;52.220;5.172;2023-08-20T07:01:29;8.05;;;2.20;;
79790;SDS011;69278;52.220;5.172;2023-08-20T07:03:55;9.30;;;2.88;;
79790;SDS011;69278;52.220;5.172;2023-08-20T07:06:22;8.13;;;2.00;;
79790;SDS011;69278;52.220;5.172;2023-08-20T07:08:48;6.00;;;1.97;;
79790;SDS011;69278;52.220;5.172;2023-08-20T07:11:15;9.57;;;2.25;;
79790;SDS011;69278;52.220;5.172;2023-08-20T07:13:41;7.80;;;2.08;;
79790;SDS011;69278;52.220;5.172;2023-08-20T07:16:08;7.93;;;2.00;;
79790;SDS011;69278;52.220;5.172;2023-08-20T07:18:35;8.48;;;2.88;;
79790;SDS011;69278;52.220;5.172;2023-08-20T07:21:02;7.23;;;1.80;;
79790;SDS011;69278;52.220;5.172;2023-08-20T07:23:29;11.50;;;1.98;;
79790;SDS011;69278;52.220;5.172;2023-08-20T07:26:08;5.88;;;2.08;;
79790;SDS011;69278;52.220;5.172;2023-08-20T07:28:36;7.22;;;1.90;;
79790;SDS011;69278;52.220;5.172;2023-08-20T07:31:22;10.00;;;2.63;;
79790;SDS011;69278;52.220;5.172;2023-08-20T07:33:52;6.97;;;1.87;;
79790;SDS011;69278;52.220;5.172;2023-08-20T07:36:19;9.43;;;1.88;;
79790;SDS011;69278;52.220;5.172;2023-08-20T07:38:50;9.27;;;2.45;;
79790;SDS011;69278;52.220;5.172;2023-08-20T07:41:17;7.85;;;2.05;;
79790;SDS011;69278;52.220;5.172;2023-08-20T07:43:44;8.27;;;2.10;;
79790;SDS011;69278;52.220;5.172;2023-08-20T07:46:10;9.53;;;2.10;;
79790;SDS011;69278;52.220;5.172;2023-08-20T07:48:37;9.60;;;2.03;;
79790;SDS011;69278;52.220;5.172;2023-08-20T07:51:04;9.63;;;2.25;;
79790;SDS011;69278;52.220;5.172;2023-08-20T07:53:31;10.35;;;2.30;;
79790;SDS011;69278;52.220;5.172;2023-08-20T07:55:59;9.05;;;2.28;;
79790;SDS011;69278;52.220;5.172;2023-08-20T07:58:28;11.23;;;2.50;;
79790;SDS011;69278;52.220;5.172;2023-08-20T08:00:57;7.95;;;1.92;;
79790;SDS011;69278;52.220;5.172;2023-08-20T08:03:25;10.77;;;2.40;;
79790;SDS011;69278;52.220;5.172;2023-08-20T08:05:55;7.18;;;2.03;;
79790;SDS011;69278;52.220;5.172;2023-08-20T08:08:21;11.45;;;2.38;;
79790;SDS011;69278;52.220;5.172;2023-08-20T08:10:48;7.73;;;2.33;;
79790;SDS011;69278;52.220;5.172;2023-08-20T08:13:17;8.80;;;2.20;;
79790;SDS011;69278;52.220;5.172;2023-08-20T08:15:45;6.22;;;1.90;;
79790;SDS011;69278;52.220;5.172;2023-08-20T08:18:12;8.18;;;1.90;;
79790;SDS011;69278;52.220;5.172;2023-08-20T08:20:38;8.23;;;2.40;;
79790;SDS011;69278;52.220;5.172;2023-08-20T08:23:05;11.00;;;2.13;;
79790;SDS011;69278;52.220;5.172;2023-08-20T08:25:31;7.10;;;2.03;;
79790;SDS011;69278;52.220;5.172;2023-08-20T08:27:58;9.30;;;2.63;;
79790;SDS011;69278;52.220;5.172;2023-08-20T08:30:26;8.70;;;2.63;;
79790;SDS011;69278;52.220;5.172;2023-08-20T08:32:53;8.20;;;2.50;;
79790;SDS011;69278;52.220;5.172;2023-08-20T08:35:20;8.70;;;2.40;;
79790;SDS011;69278;52.220;5.172;2023-08-20T08:37:46;8.43;;;2.40;;
79790;SDS011;69278;52.220;5.172;2023-08-20T08:40:13;7.03;;;2.10;;
79790;SDS011;69278;52.220;5.172;2023-08-20T08:42:40;8.38;;;2.05;;
79790;SDS011;69278;52.220;5.172;2023-08-20T08:45:09;8.73;;;2.10;;
79790;SDS011;69278;52.220;5.172;2023-08-20T08:47:39;7.27;;;2.20;;
79790;SDS011;69278;52.220;5.172;2023-08-20T08:50:06;5.75;;;2.10;;
79790;SDS011;69278;52.220;5.172;2023-08-20T08:52:33;8.27;;;2.22;;
79790;SDS011;69278;52.220;5.172;2023-08-20T08:55:03;10.07;;;2.13;;
79790;SDS011;69278;52.220;5.172;2023-08-20T08:57:30;4.10;;;1.80;;
79790;SDS011;69278;52.220;5.172;2023-08-20T08:59:57;9.63;;;2.20;;
79790;SDS011;69278;52.220;5.172;2023-08-20T09:02:24;6.82;;;1.90;;
79790;SDS011;69278;52.220;5.172;2023-08-20T09:04:50;7.22;;;2.20;;
79790;SDS011;69278;52.220;5.172;2023-08-20T09:07:18;7.00;;;2.03;;
79790;SDS011;69278;52.220;5.172;2023-08-20T09:09:45;6.28;;;1.90;;
79790;SDS011;69278;52.220;5.172;2023-08-20T09:12:12;6.37;;;1.77;;
79790;SDS011;69278;52.220;5.172;2023-08-20T09:14:49;7.43;;;1.83;;
79790;SDS011;69278;52.220;5.172;2023-08-20T09:17:17;6.85;;;2.28;;
79790;SDS011;69278;52.220;5.172;2023-08-20T09:19:45;9.48;;;1.95;;
79790;SDS011;69278;52.220;5.172;2023-08-20T09:22:12;6.05;;;1.90;;
79790;SDS011;69278;52.220;5.172;2023-08-20T09:24:40;6.93;;;1.80;;
79790;SDS011;69278;52.220;5.172;2023-08-20T09:27:14;6.32;;;1.80;;
79790;SDS011;69278;52.220;5.172;2023-08-20T09:29:44;8.25;;;2.00;;
79790;SDS011;69278;52.220;5.172;2023-08-20T09:32:13;5.32;;;1.70;;
79790;SDS011;69278;52.220;5.172;2023-08-20T09:34:48;7.35;;;2.15;;
79790;SDS011;69278;52.220;5.172;2023-08-20T09:37:17;6.57;;;2.00;;
79790;SDS011;69278;52.220;5.172;2023-08-20T09:39:45;6.80;;;1.85;;
79790;SDS011;69278;52.220;5.172;2023-08-20T09:42:12;7.70;;;1.90;;
79790;SDS011;69278;52.220;5.172;2023-08-20T09:44:40;6.05;;;1.80;;
79790;SDS011;69278;52.220;5.172;2023-08-20T09:47:10;7.15;;;1.90;;
79790;SDS011;69278;52.220;5.172;2023-08-20T09:49:39;5.40;;;1.80;;
79790;SDS011;69278;52.220;5.172;2023-08-20T09:52:07;5.85;;;2.00;;
79790;SDS011;69278;52.220;5.172;2023-08-20T09:54:42;7.75;;;1.70;;
79790;SDS011;69278;52.220;5.172;2023-08-20T09:57:12;6.45;;;1.70;;
79790;SDS011;69278;52.220;5.172;2023-08-20T09:59:45;5.93;;;1.48;;
79790;SDS011;69278;52.220;5.172;2023-08-20T10:02:13;4.03;;;1.67;;
79790;SDS011;69278;52.220;5.172;2023-08-20T10:04:41;8.38;;;1.77;;
79790;SDS011;69278;52.220;5.172;2023-08-20T10:07:09;4.57;;;1.50;;
79790;SDS011;69278;52.220;5.172;2023-08-20T10:09:38;5.07;;;1.70;;
79790;SDS011;69278;52.220;5.172;2023-08-20T10:12:07;6.20;;;1.50;;
79790;SDS011;69278;52.220;5.172;2023-08-20T10:14:34;5.53;;;1.40;;
79790;SDS011;69278;52.220;5.172;2023-08-20T10:17:07;5.68;;;1.42;;
79790;SDS011;69278;52.220;5.172;2023-08-20T10:19:37;4.00;;;1.30;;
79790;SDS011;69278;52.220;5.172;2023-08-20T10:22:04;5.63;;;1.42;;
79790;SDS011;69278;52.220;5.172;2023-08-20T10:24:47;5.45;;;1.38;;
79790;SDS011;69278;52.220;5.172;2023-08-20T10:27:31;5.37;;;1.50;;
79790;SDS011;69278;52.220;5.172;2023-08-20T10:30:00;4.85;;;1.30;;
79790;SDS011;69278;52.220;5.172;2023-08-20T10:32:48;4.45;;;1.40;;
79790;SDS011;69278;52.220;5.172;2023-08-20T10:35:26;5.82;;;1.40;;
79790;SDS011;69278;52.220;5.172;2023-08-20T10:38:00;5.85;;;1.38;;
79790;SDS011;69278;52.220;5.172;2023-08-20T10:46:13;5.78;;;1.40;;
79790;SDS011;69278;52.220;5.172;2023-08-20T10:51:17;6.45;;;1.33;;
79790;SDS011;69278;52.220;5.172;2023-08-20T10:56:44;5.20;;;1.20;;
79790;SDS011;69278;52.220;5.172;2023-08-20T10:59:30;4.38;;;1.40;;
79790;SDS011;69278;52.220;5.172;2023-08-20T11:01:58;4.88;;;1.65;;
79790;SDS011;69278;52.220;5.172;2023-08-20T11:04:30;4.88;;;1.30;;
79790;SDS011;69278;52.220;5.172;2023-08-20T11:06:59;4.17;;;1.40;;
79790;SDS011;69278;52.220;5.172;2023-08-20T11:09:27;3.75;;;1.40;;
79790;SDS011;69278;52.220;5.172;2023-08-20T11:11:56;5.30;;;1.60;;
79790;SDS011;69278;52.220;5.172;2023-08-20T11:14:23;4.97;;;1.50;;
79790;SDS011;69278;52.220;5.172;2023-08-20T11:16:50;3.60;;;1.30;;
79790;SDS011;69278;52.220;5.172;2023-08-20T11:19:21;5.70;;;1.53;;
79790;SDS011;69278;52.220;5.172;2023-08-20T11:21:49;3.90;;;1.10;;
79790;SDS011;69278;52.220;5.172;2023-08-20T11:24:16;4.32;;;1.42;;
79790;SDS011;69278;52.220;5.172;2023-08-20T11:26:44;7.30;;;1.42;;
79790;SDS011;69278;52.220;5.172;2023-08-20T11:29:14;6.22;;;1.40;;
79790;SDS011;69278;52.220;5.172;2023-08-20T11:31:50;3.30;;;1.20;;
79790;SDS011;69278;52.220;5.172;2023-08-20T11:34:19;3.97;;;1.60;;
79790;SDS011;69278;52.220;5.172;2023-08-20T11:36:46;4.85;;;1.50;;
79790;SDS011;69278;52.220;5.172;2023-08-20T11:39:14;3.97;;;1.40;;
79790;SDS011;69278;52.220;5.172;2023-08-20T11:41:40;5.97;;;1.60;;
79790;SDS011;69278;52.220;5.172;2023-08-20T11:44:08;4.50;;;1.60;;
79790;SDS011;69278;52.220;5.172;2023-08-20T11:46:41;5.18;;;1.50;;
79790;SDS011;69278;52.220;5.172;2023-08-20T11:49:10;5.32;;;1.52;;
79790;SDS011;69278;52.220;5.172;2023-08-20T11:51:41;7.80;;;1.60;;
79790;SDS011;69278;52.220;5.172;2023-08-20T11:54:10;6.22;;;1.60;;
79790;SDS011;69278;52.220;5.172;2023-08-20T11:56:48;4.60;;;1.67;;
79790;SDS011;69278;52.220;5.172;2023-08-20T11:59:17;4.78;;;1.60;;
79790;SDS011;69278;52.220;5.172;2023-08-20T12:01:52;5.05;;;1.60;;
79790;SDS011;69278;52.220;5.172;2023-08-20T12:04:23;6.97;;;1.45;;
79790;SDS011;69278;52.220;5.172;2023-08-20T12:07:01;4.53;;;1.42;;
79790;SDS011;69278;52.220;5.172;2023-08-20T12:09:29;6.77;;;1.60;;
79790;SDS011;69278;52.220;5.172;2023-08-20T12:11:56;5.20;;;1.48;;
79790;SDS011;69278;52.220;5.172;2023-08-20T12:14:24;5.65;;;1.60;;
79790;SDS011;69278;52.220;5.172;2023-08-20T12:16:51;6.70;;;1.27;;
79790;SDS011;69278;52.220;5.172;2023-08-20T12:19:19;6.78;;;1.60;;
79790;SDS011;69278;52.220;5.172;2023-08-20T12:21:46;5.67;;;1.50;;
79790;SDS011;69278;52.220;5.172;2023-08-20T12:24:12;3.78;;;1.40;;
79790;SDS011;69278;52.220;5.172;2023-08-20T12:26:39;6.95;;;1.80;;
79790;SDS011;69278;52.220;5.172;2023-08-20T12:29:06;6.68;;;1.77;;
79790;SDS011;69278;52.220;5.172;2023-08-20T12:31:34;5.10;;;1.50;;
79790;SDS011;69278;52.220;5.172;2023-08-20T12:34:01;6.17;;;1.50;;
79790;SDS011;69278;52.220;5.172;2023-08-20T12:36:28;3.70;;;1.20;;
79790;SDS011;69278;52.220;5.172;2023-08-20T12:38:55;5.40;;;1.20;;
79790;SDS011;69278;52.220;5.172;2023-08-20T12:41:22;5.53;;;1.20;;
79790;SDS011;69278;52.220;5.172;2023-08-20T12:43:48;4.22;;;1.30;;
79790;SDS011;69278;52.220;5.172;2023-08-20T12:46:15;4.50;;;1.30;;
79790;SDS011;69278;52.220;5.172;2023-08-20T12:48:42;6.75;;;1.55;;
79790;SDS011;69278;52.220;5.172;2023-08-20T12:51:09;6.22;;;1.80;;
79790;SDS011;69278;52.220;5.172;2023-08-20T12:53:40;5.60;;;1.45;;
79790;SDS011;69278;52.220;5.172;2023-08-20T12:56:07;6.72;;;1.30;;
79790;SDS011;69278;52.220;5.172;2023-08-20T12:58:33;3.83;;;1.20;;
79790;SDS011;69278;52.220;5.172;2023-08-20T13:01:00;6.20;;;1.20;;
79790;SDS011;69278;52.220;5.172;2023-08-20T13:03:27;3.53;;;1.10;;
79790;SDS011;69278;52.220;5.172;2023-08-20T13:05:55;3.47;;;1.30;;
79790;SDS011;69278;52.220;5.172;2023-08-20T13:08:25;4.82;;;1.60;;
79790;SDS011;69278;52.220;5.172;2023-08-20T13:10:55;5.37;;;1.30;;
79790;SDS011;69278;52.220;5.172;2023-08-20T13:13:23;4.95;;;1.63;;
79790;SDS011;69278;52.220;5.172;2023-08-20T13:15:51;4.47;;;1.45;;
79790;SDS011;69278;52.220;5.172;2023-08-20T13:18:19;5.10;;;1.30;;
79790;SDS011;69278;52.220;5.172;2023-08-20T13:20:52;3.60;;;1.30;;
79790;SDS011;69278;52.220;5.172;2023-08-20T13:23:18;6.07;;;1.13;;
79790;SDS011;69278;52.220;5.172;2023-08-20T13:25:45;3.80;;;1.33;;
79790;SDS011;69278;52.220;5.172;2023-08-20T13:28:11;3.80;;;1.30;;
79790;SDS011;69278;52.220;5.172;2023-08-20T13:30:38;5.47;;;1.25;;
79790;SDS011;69278;52.220;5.172;2023-08-20T13:33:05;4.90;;;1.38;;
79790;SDS011;69278;52.220;5.172;2023-08-20T13:35:32;4.40;;;1.20;;
79790;SDS011;69278;52.220;5.172;2023-08-20T13:37:58;2.83;;;1.10;;
79790;SDS011;69278;52.220;5.172;2023-08-20T13:40:25;3.78;;;1.60;;
79790;SDS011;69278;52.220;5.172;2023-08-20T13:42:51;4.70;;;1.33;;
79790;SDS011;69278;52.220;5.172;2023-08-20T13:45:18;3.72;;;1.33;;
79790;SDS011;69278;52.220;5.172;2023-08-20T13:47:44;3.67;;;1.30;;
79790;SDS011;69278;52.220;5.172;2023-08-20T13:50:13;2.85;;;1.00;;
79790;SDS011;69278;52.220;5.172;2023-08-20T13:52:40;3.30;;;1.20;;
79790;SDS011;69278;52.220;5.172;2023-08-20T13:55:06;3.95;;;1.30;;
79790;SDS011;69278;52.220;5.172;2023-08-20T13:57:34;2.95;;;1.30;;
79790;SDS011;69278;52.220;5.172;2023-08-20T14:00:00;5.57;;;1.20;;
79790;SDS011;69278;52.220;5.172;2023-08-20T14:02:27;4.32;;;1.30;;
79790;SDS011;69278;52.220;5.172;2023-08-20T14:04:54;3.25;;;1.30;;
79790;SDS011;69278;52.220;5.172;2023-08-20T14:07:20;3.65;;;1.30;;
79790;SDS011;69278;52.220;5.172;2023-08-20T14:09:47;3.25;;;1.38;;
79790;SDS011;69278;52.220;5.172;2023-08-20T14:12:13;4.30;;;1.20;;
79790;SDS011;69278;52.220;5.172;2023-08-20T14:14:40;4.22;;;1.42;;
79790;SDS011;69278;52.220;5.172;2023-08-20T14:17:06;3.78;;;1.30;;
79790;SDS011;69278;52.220;5.172;2023-08-20T14:19:32;2.42;;;1.20;;
79790;SDS011;69278;52.220;5.172;2023-08-20T14:21:59;3.08;;;1.20;;
79790;SDS011;69278;52.220;5.172;2023-08-20T14:24:25;5.07;;;1.40;;
79790;SDS011;69278;52.220;5.172;2023-08-20T14:26:52;3.42;;;1.20;;
79790;SDS011;69278;52.220;5.172;2023-08-20T14:29:18;4.95;;;1.40;;
79790;SDS011;69278;52.220;5.172;2023-08-20T14:31:45;2.67;;;1.40;;
79790;SDS011;69278;52.220;5.172;2023-08-20T14:34:11;3.40;;;1.35;;
79790;SDS011;69278;52.220;5.172;2023-08-20T14:36:38;5.40;;;1.30;;
79790;SDS011;69278;52.220;5.172;2023-08-20T14:39:05;2.97;;;1.30;;
79790;SDS011;69278;52.220;5.172;2023-08-20T14:41:32;3.00;;;1.23;;
79790;SDS011;69278;52.220;5.172;2023-08-20T14:43:58;3.22;;;1.30;;
79790;SDS011;69278;52.220;5.172;2023-08-20T14:46:25;4.03;;;1.25;;
79790;SDS011;69278;52.220;5.172;2023-08-20T14:48:52;2.97;;;0.97;;
79790;SDS011;69278;52.220;5.172;2023-08-20T14:51:21;5.93;;;1.10;;
79790;SDS011;69278;52.220;5.172;2023-08-20T14:53:48;2.67;;;1.10;;
79790;SDS011;69278;52.220;5.172;2023-08-20T14:56:15;4.38;;;1.10;;
79790;SDS011;69278;52.220;5.172;2023-08-20T14:58:41;4.70;;;1.20;;
79790;SDS011;69278;52.220;5.172;2023-08-20T15:01:07;5.33;;;1.20;;
79790;SDS011;69278;52.220;5.172;2023-08-20T15:03:34;3.33;;;1.42;;
79790;SDS011;69278;52.220;5.172;2023-08-20T15:06:01;3.45;;;1.20;;
79790;SDS011;69278;52.220;5.172;2023-08-20T15:08:27;4.82;;;1.30;;
79790;SDS011;69278;52.220;5.172;2023-08-20T15:10:57;4.05;;;1.38;;
79790;SDS011;69278;52.220;5.172;2023-08-20T15:13:30;4.10;;;1.20;;
79790;SDS011;69278;52.220;5.172;2023-08-20T15:15:58;4.93;;;1.27;;